createdAt,value
2022-08-26T00:00:35.902Z,26.50
2022-08-26T00:03:39.474Z,26.75
2022-08-26T00:06:46.182Z,26.93
2022-08-26T00:09:49.949Z,26.37
2022-08-26T00:12:52.543Z,25.95
2022-08-26T00:15:54.744Z,25.94
2022-08-26T00:18:56.907Z,26.23
2022-08-26T00:21:59.297Z,25.85
2022-08-26T00:25:01.841Z,25.56
2022-08-26T00:28:05.129Z,25.89
2022-08-26T00:31:11.079Z,25.96
2022-08-26T00:34:15.389Z,25.79
2022-08-26T00:37:18.491Z,25.94
2022-08-26T00:40:22.438Z,25.76
2022-08-26T00:43:25.124Z,25.83
2022-08-26T00:46:29.067Z,25.99
2022-08-26T00:49:44.947Z,26.07
2022-08-26T00:52:47.187Z,26.09
2022-08-26T00:55:55.606Z,25.69
2022-08-26T00:58:58.723Z,25.16
2022-08-26T01:02:00.941Z,25.85
2022-08-26T01:05:05.416Z,25.89
2022-08-26T01:08:08.182Z,25.78
2022-08-26T01:11:10.632Z,26.24
2022-08-26T01:14:13.637Z,26.15
2022-08-26T01:17:15.654Z,25.81
2022-08-26T01:20:23.684Z,25.39
2022-08-26T01:23:26.845Z,24.45
2022-08-26T01:26:31.705Z,25.41
2022-08-26T01:29:35.596Z,25.01
2022-08-26T01:32:38.828Z,25.49
2022-08-26T01:35:41.490Z,25.47
2022-08-26T01:38:43.608Z,25.34
2022-08-26T01:41:45.591Z,25.33
2022-08-26T01:44:49.851Z,25.44
2022-08-26T01:47:56.664Z,25.71
2022-08-26T01:50:59.530Z,25.32
2022-08-26T01:54:01.946Z,25.28
2022-08-26T01:57:04.780Z,24.59
2022-08-26T02:00:08.558Z,25.18
2022-08-26T02:03:21.717Z,25.59
2022-08-26T02:06:24.143Z,25.25
2022-08-26T02:09:26.951Z,24.64
2022-08-26T02:12:28.933Z,24.73
2022-08-26T02:15:31.196Z,24.64
2022-08-26T02:18:33.843Z,24.45
2022-08-26T02:21:36.334Z,25.08
2022-08-26T02:24:47.561Z,25.23
2022-08-26T02:27:50.124Z,25.47
2022-08-26T02:30:52.220Z,25.09
2022-08-26T02:33:54.281Z,24.30
2022-08-26T02:36:57.252Z,24.03
2022-08-26T02:40:00.624Z,24.75
2022-08-26T02:43:02.786Z,25.10
2022-08-26T02:46:05.053Z,25.10
2022-08-26T02:49:07.156Z,25.30
2022-08-26T02:52:09.202Z,24.59
2022-08-26T02:55:11.502Z,24.59
2022-08-26T02:58:13.670Z,23.85
2022-08-26T03:01:26.646Z,23.63
2022-08-26T03:04:29.115Z,23.55
2022-08-26T03:07:35.494Z,23.83
2022-08-26T03:10:38.492Z,23.79
2022-08-26T03:13:42.404Z,24.28
2022-08-26T03:16:44.483Z,24.27
2022-08-26T03:19:54.661Z,23.95
2022-08-26T03:22:59.568Z,24.12
2022-08-26T03:26:01.935Z,24.87
2022-08-26T03:29:23.105Z,23.81
2022-08-26T03:32:27.215Z,24.35
2022-08-26T03:35:29.408Z,25.05
2022-08-26T03:38:31.630Z,24.50
2022-08-26T03:41:34.470Z,24.98
2022-08-26T03:44:37.141Z,24.90
2022-08-26T03:47:44.804Z,24.35
2022-08-26T03:50:46.751Z,24.53
2022-08-26T03:53:50.765Z,24.01
2022-08-26T03:56:52.784Z,24.02
2022-08-26T03:59:55.292Z,23.70
2022-08-26T04:02:57.731Z,23.85
2022-08-26T04:05:59.819Z,24.18
2022-08-26T04:09:04.322Z,24.43
2022-08-26T04:12:06.594Z,24.27
2022-08-26T04:15:11.256Z,24.42
2022-08-26T04:18:13.385Z,23.48
2022-08-26T04:21:15.549Z,23.38
2022-08-26T04:24:17.835Z,23.72
2022-08-26T04:27:20.060Z,24.62
2022-08-26T04:30:22.877Z,24.51
2022-08-26T04:33:33.200Z,25.08
2022-08-26T04:36:35.558Z,24.03
2022-08-26T04:39:38.419Z,23.56
2022-08-26T04:42:40.475Z,24.31
2022-08-26T04:45:44.891Z,24.97
2022-08-26T04:48:48.871Z,24.37
2022-08-26T04:51:51.048Z,24.76
2022-08-26T04:54:53.040Z,24.94
2022-08-26T04:57:58.834Z,24.81
2022-08-26T05:01:03.225Z,25.06
2022-08-26T05:04:08.200Z,25.16
2022-08-26T05:07:11.821Z,24.69
2022-08-26T05:10:13.934Z,26.15
2022-08-26T05:13:18.742Z,26.19
2022-08-26T05:16:23.083Z,26.23
2022-08-26T05:19:25.243Z,27.49
2022-08-26T05:22:29.920Z,26.97
2022-08-26T05:25:31.942Z,27.12
2022-08-26T05:28:34.153Z,26.97
2022-08-26T05:31:37.284Z,27.25
2022-08-26T05:34:39.335Z,28.43
2022-08-26T05:37:44.884Z,29.12
2022-08-26T05:40:52.712Z,28.92
2022-08-26T05:44:00.156Z,29.05
2022-08-26T05:47:02.270Z,28.27
2022-08-26T05:50:06.587Z,29.50
2022-08-26T05:53:09.713Z,29.79
2022-08-26T05:56:12.388Z,30.00
2022-08-26T05:59:14.879Z,30.28
2022-08-26T06:02:16.936Z,30.57
2022-08-26T06:05:19.255Z,29.72
2022-08-26T06:08:23.954Z,31.42
2022-08-26T06:11:26.783Z,31.74
2022-08-26T06:14:30.592Z,32.45
2022-08-26T06:17:32.861Z,33.31
2022-08-26T06:20:36.667Z,32.37
2022-08-26T06:23:57.535Z,31.95
2022-08-26T06:27:19.122Z,31.87
2022-08-26T06:30:21.992Z,32.88
2022-08-26T06:33:24.992Z,32.61
2022-08-26T06:36:28.468Z,32.08
2022-08-26T06:39:33.203Z,32.79
2022-08-26T06:42:35.534Z,32.75
2022-08-26T06:45:41.051Z,33.36
2022-08-26T06:48:43.910Z,33.76
2022-08-26T06:51:46.584Z,34.98
2022-08-26T06:54:51.095Z,33.25
2022-08-26T06:57:55.170Z,33.60
2022-08-26T07:01:00.668Z,33.67
2022-08-26T07:04:07.914Z,34.41
2022-08-26T07:07:16.241Z,34.34
2022-08-26T07:10:18.656Z,34.57
2022-08-26T07:13:30.714Z,32.93
2022-08-26T07:16:33.688Z,34.86
2022-08-26T07:19:38.443Z,35.32
2022-08-26T07:22:42.515Z,35.38
2022-08-26T07:25:47.941Z,36.67
2022-08-26T07:28:53.816Z,35.20
2022-08-26T07:31:56.461Z,33.94
2022-08-26T07:34:59.431Z,34.24
2022-08-26T07:38:01.865Z,35.03
2022-08-26T07:41:04.761Z,33.93
2022-08-26T07:44:09.034Z,32.99
2022-08-26T07:47:24.870Z,34.32
2022-08-26T07:50:48.859Z,35.68
2022-08-26T07:53:52.684Z,36.12
2022-08-26T07:56:55.796Z,36.41
2022-08-26T07:59:58.497Z,35.87
2022-08-26T08:03:00.874Z,38.54
2022-08-26T08:06:02.919Z,36.71
2022-08-26T08:09:05.481Z,36.99
2022-08-26T08:12:14.238Z,39.14
2022-08-26T08:15:16.938Z,37.32
2022-08-26T08:18:20.360Z,39.06
2022-08-26T08:21:24.344Z,37.67
2022-08-26T08:24:26.368Z,36.32
2022-08-26T08:27:28.231Z,37.20
2022-08-26T08:30:31.404Z,40.00
2022-08-26T08:33:36.908Z,40.11
2022-08-26T08:36:40.461Z,36.20
2022-08-26T08:39:43.648Z,38.44
2022-08-26T08:42:57.362Z,37.48
2022-08-26T08:46:01.099Z,37.80
2022-08-26T08:49:06.283Z,37.16
2022-08-26T08:52:18.434Z,39.69
2022-08-26T08:55:21.786Z,40.79
2022-08-26T08:58:44.226Z,37.22
2022-08-26T09:01:54.121Z,40.19
2022-08-26T09:05:02.383Z,39.06
2022-08-26T09:08:11.900Z,38.51
2022-08-26T09:11:14.360Z,40.70
2022-08-26T09:14:16.255Z,38.36
2022-08-26T09:17:19.287Z,38.37
2022-08-26T09:20:40.580Z,39.84
2022-08-26T09:23:43.136Z,41.10
2022-08-26T09:26:47.585Z,40.30
2022-08-26T09:29:50.487Z,41.88
2022-08-26T09:33:10.368Z,38.57
2022-08-26T09:36:26.280Z,40.28
2022-08-26T09:39:38.198Z,41.53
2022-08-26T09:42:40.210Z,38.68
2022-08-26T09:45:50.139Z,38.58
2022-08-26T09:48:53.323Z,38.38
2022-08-26T09:52:04.302Z,41.19
2022-08-26T09:55:08.048Z,40.41
2022-08-26T09:58:33.243Z,39.58
2022-08-26T10:01:36.291Z,40.72
2022-08-26T10:04:38.347Z,39.13
2022-08-26T10:07:43.499Z,41.32
2022-08-26T10:10:45.394Z,42.46
2022-08-26T10:13:57.442Z,41.69
2022-08-26T10:17:07.733Z,40.09
2022-08-26T10:20:23.133Z,40.74
2022-08-26T10:23:26.224Z,39.25
2022-08-26T10:26:48.200Z,39.32
2022-08-26T10:29:51.298Z,38.86
2022-08-26T10:32:56.001Z,39.85
2022-08-26T10:35:58.882Z,38.55
2022-08-26T10:39:01.536Z,39.84
2022-08-26T10:42:05.239Z,41.40
2022-08-26T10:45:15.458Z,39.04
2022-08-26T10:48:19.087Z,37.95
2022-08-26T10:51:36.532Z,36.58
2022-08-26T10:54:44.243Z,35.92
2022-08-26T10:57:56.093Z,36.10
2022-08-26T11:01:32.078Z,34.78
2022-08-26T11:04:48.697Z,35.61
2022-08-26T11:07:56.068Z,35.38
2022-08-26T11:10:59.615Z,37.47
2022-08-26T11:14:08.694Z,35.60
2022-08-26T11:17:11.912Z,36.12
2022-08-26T11:20:22.704Z,36.21
2022-08-26T11:23:28.461Z,36.87
2022-08-26T11:26:37.756Z,38.68
2022-08-26T11:29:56.551Z,39.50
2022-08-26T11:32:58.721Z,40.20
2022-08-26T11:36:00.597Z,42.95
2022-08-26T11:39:14.311Z,40.61
2022-08-26T11:42:20.178Z,42.08
2022-08-26T11:45:23.422Z,40.10
2022-08-26T11:48:36.697Z,38.39
2022-08-26T11:51:40.877Z,38.89
2022-08-26T11:55:02.019Z,39.47
2022-08-26T11:58:04.758Z,41.26
2022-08-26T12:01:09.731Z,38.88
2022-08-26T12:04:17.283Z,37.72
2022-08-26T12:07:24.178Z,40.19
2022-08-26T12:10:29.825Z,43.92
2022-08-26T12:13:31.981Z,43.57
2022-08-26T12:16:39.064Z,44.73
2022-08-26T12:19:41.725Z,45.26
2022-08-26T12:22:43.596Z,45.37
2022-08-26T12:25:51.542Z,44.31
2022-08-26T12:29:00.329Z,44.06
2022-08-26T12:32:09.619Z,45.31
2022-08-26T12:35:12.616Z,43.01
2022-08-26T12:38:15.128Z,43.82
2022-08-26T12:41:35.587Z,45.50
2022-08-26T12:44:53.775Z,46.16
2022-08-26T12:47:58.136Z,46.58
2022-08-26T12:50:59.966Z,47.48
2022-08-26T12:54:06.698Z,44.67
2022-08-26T12:57:12.245Z,47.42
2022-08-26T13:00:29.475Z,42.06
2022-08-26T13:03:34.320Z,40.49
2022-08-26T13:06:36.226Z,39.77
2022-08-26T13:09:38.558Z,37.83
2022-08-26T13:12:41.170Z,39.04
2022-08-26T13:15:43.066Z,38.39
2022-08-26T13:18:45.609Z,36.71
2022-08-26T13:21:54.757Z,36.43
2022-08-26T13:24:56.941Z,36.25
2022-08-26T13:27:58.854Z,36.61
2022-08-26T13:31:00.944Z,37.23
2022-08-26T13:34:04.192Z,36.51
2022-08-26T13:37:06.423Z,36.82
2022-08-26T13:40:09.089Z,36.19
2022-08-26T13:43:11.377Z,37.29
2022-08-26T13:46:13.405Z,36.40
2022-08-26T13:49:15.318Z,35.59
2022-08-26T13:52:17.818Z,36.02
2022-08-26T13:55:31.906Z,35.94
2022-08-26T13:58:33.765Z,35.69
2022-08-26T14:01:35.765Z,35.26
2022-08-26T14:04:37.607Z,36.13
2022-08-26T14:07:39.861Z,35.50
2022-08-26T14:10:42.402Z,35.48
2022-08-26T14:13:44.379Z,35.61
2022-08-26T14:16:58.983Z,36.52
2022-08-26T14:20:02.215Z,35.72
2022-08-26T14:23:13.582Z,36.59
2022-08-26T14:26:28.904Z,36.74
2022-08-26T14:29:31.701Z,36.27
2022-08-26T14:32:33.914Z,35.72
2022-08-26T14:35:35.850Z,35.31
2022-08-26T14:38:37.655Z,34.83
2022-08-26T14:41:54.443Z,36.14
2022-08-26T14:44:57.765Z,35.91
2022-08-26T14:47:59.853Z,35.11
2022-08-26T14:51:01.688Z,34.85
2022-08-26T14:54:12.361Z,35.42
2022-08-26T14:57:15.120Z,35.83
2022-08-26T15:00:17.223Z,35.79
2022-08-26T15:06:26.014Z,35.19
2022-08-26T15:09:28.242Z,34.87
2022-08-26T15:12:30.097Z,34.86
2022-08-26T15:15:31.962Z,34.68
2022-08-26T15:18:33.792Z,34.93
2022-08-26T15:21:35.850Z,34.62
2022-08-26T15:24:37.779Z,34.82
2022-08-26T15:27:39.771Z,35.56
2022-08-26T15:30:42.343Z,34.72
2022-08-26T15:33:44.330Z,33.88
2022-08-26T15:36:46.769Z,34.37
2022-08-26T15:39:48.998Z,34.29
2022-08-26T15:42:57.618Z,34.73
2022-08-26T15:46:03.395Z,34.35
2022-08-26T15:49:05.300Z,34.57
2022-08-26T15:52:07.584Z,34.56
2022-08-26T15:55:09.529Z,34.16
2022-08-26T15:58:11.645Z,34.41
2022-08-26T16:01:14.869Z,34.47
2022-08-26T16:04:20.369Z,34.61
2022-08-26T16:07:22.274Z,35.08
2022-08-26T16:10:24.537Z,34.07
2022-08-26T16:13:26.350Z,34.72
2022-08-26T16:16:30.869Z,34.34
2022-08-26T16:19:32.811Z,34.48
2022-08-26T16:22:34.648Z,33.78
2022-08-26T16:25:36.686Z,33.24
2022-08-26T16:28:38.770Z,33.93
2022-08-26T16:31:41.215Z,34.52
2022-08-26T16:34:56.143Z,33.81
2022-08-26T16:37:58.446Z,34.21
2022-08-26T16:41:01.151Z,33.40
2022-08-26T16:44:03.407Z,34.21
2022-08-26T16:47:05.278Z,33.92
2022-08-26T16:50:09.393Z,33.84
2022-08-26T16:56:19.215Z,33.87
2022-08-26T16:59:21.569Z,33.03
2022-08-26T17:02:23.441Z,33.56
2022-08-26T17:05:27.741Z,33.30
2022-08-26T17:08:29.781Z,33.48
2022-08-26T17:11:31.605Z,33.31
2022-08-26T17:14:33.642Z,33.49
2022-08-26T17:17:35.483Z,33.37
2022-08-26T17:20:37.401Z,33.58
2022-08-26T17:23:39.546Z,33.12
2022-08-26T17:26:44.306Z,33.40
2022-08-26T17:29:50.492Z,33.64
2022-08-26T17:32:52.902Z,33.63
2022-08-26T17:35:55.207Z,33.77
2022-08-26T17:38:57.755Z,33.47
2022-08-26T17:42:00.173Z,32.94
2022-08-26T17:45:02.081Z,32.90
2022-08-26T17:48:04.297Z,32.43
2022-08-26T17:51:13.542Z,32.73
2022-08-26T17:54:15.605Z,33.34
2022-08-26T17:57:17.563Z,33.21
2022-08-26T18:00:22.345Z,32.91
2022-08-26T18:03:24.287Z,33.12
2022-08-26T18:06:26.155Z,32.92
2022-08-26T18:09:31.563Z,33.07
2022-08-26T18:12:33.600Z,32.34
2022-08-26T18:15:38.146Z,32.32
2022-08-26T18:18:40.185Z,32.22
2022-08-26T18:21:42.148Z,32.46
2022-08-26T18:24:58.805Z,32.05
2022-08-26T18:28:01.223Z,32.25
2022-08-26T18:31:03.430Z,32.36
2022-08-26T18:34:05.359Z,32.16
2022-08-26T18:37:14.364Z,31.96
2022-08-26T18:40:16.366Z,32.10
2022-08-26T18:43:18.344Z,31.65
2022-08-26T18:46:21.168Z,31.39
2022-08-26T18:49:23.182Z,31.50
2022-08-26T18:52:25.040Z,31.17
2022-08-26T18:55:26.977Z,31.54
2022-08-26T18:58:28.786Z,31.79
2022-08-26T19:01:31.034Z,31.52
2022-08-26T19:04:33.190Z,31.93
2022-08-26T19:07:39.402Z,31.77
2022-08-26T19:10:41.813Z,30.23
2022-08-26T19:13:44.189Z,31.01
2022-08-26T19:16:46.883Z,30.81
2022-08-26T19:19:48.819Z,30.84
2022-08-26T19:22:50.779Z,30.43
2022-08-26T19:25:52.891Z,30.92
2022-08-26T19:28:54.831Z,30.57
2022-08-26T19:31:56.749Z,30.73
2022-08-26T19:34:58.613Z,31.11
2022-08-26T19:38:00.602Z,30.74
2022-08-26T19:41:02.451Z,30.88
2022-08-26T19:44:09.785Z,30.79
2022-08-26T19:47:11.773Z,30.91
2022-08-26T19:50:14.360Z,30.36
2022-08-26T19:53:16.379Z,29.24
2022-08-26T19:56:18.556Z,29.31
2022-08-26T19:59:20.786Z,30.23
2022-08-26T20:02:22.966Z,30.72
2022-08-26T20:05:25.558Z,29.71
2022-08-26T20:08:28.594Z,29.23
2022-08-26T20:11:31.660Z,30.13
2022-08-26T20:14:34.997Z,30.12
2022-08-26T20:17:36.840Z,30.50
2022-08-26T20:20:57.426Z,30.01
2022-08-26T20:24:04.301Z,29.72
2022-08-26T20:27:07.934Z,30.23
2022-08-26T20:30:10.236Z,30.27
2022-08-26T20:33:12.891Z,29.60
2022-08-26T20:36:15.195Z,29.67
2022-08-26T20:39:17.369Z,29.78
2022-08-26T20:42:20.059Z,30.11
2022-08-26T20:45:22.414Z,30.36
2022-08-26T20:48:24.316Z,29.72
2022-08-26T20:51:26.784Z,29.56
2022-08-26T20:54:28.684Z,29.47
2022-08-26T20:57:30.505Z,29.71
2022-08-26T21:00:32.521Z,28.94
2022-08-26T21:03:34.747Z,28.92
2022-08-26T21:06:38.285Z,29.40
2022-08-26T21:09:40.198Z,29.71
2022-08-26T21:12:44.138Z,29.79
2022-08-26T21:15:46.010Z,29.06
2022-08-26T21:18:47.938Z,29.06
2022-08-26T21:21:50.068Z,29.13
2022-08-26T21:24:51.923Z,29.51
2022-08-26T21:27:56.514Z,29.60
2022-08-26T21:30:58.351Z,28.60
2022-08-26T21:34:00.263Z,29.00
2022-08-26T21:37:02.074Z,29.03
2022-08-26T21:40:11.123Z,28.37
2022-08-26T21:43:18.815Z,28.65
2022-08-26T21:46:37.169Z,27.75
2022-08-26T21:49:39.010Z,28.52
2022-08-26T21:52:40.954Z,28.14
2022-08-26T21:55:42.871Z,27.28
2022-08-26T21:58:44.869Z,27.63
2022-08-26T22:01:47.111Z,27.59
2022-08-26T22:04:49.101Z,27.35
2022-08-26T22:07:51.769Z,27.82
2022-08-26T22:10:54.938Z,27.47
2022-08-26T22:13:57.735Z,27.56
2022-08-26T22:16:59.762Z,28.45
2022-08-26T22:20:01.688Z,28.27
2022-08-26T22:23:03.774Z,28.56
2022-08-26T22:26:06.454Z,28.56
2022-08-26T22:29:08.397Z,27.76
2022-08-26T22:32:10.295Z,27.48
2022-08-26T22:35:28.707Z,27.20
2022-08-26T22:38:31.627Z,27.57
2022-08-26T22:41:34.265Z,27.75
2022-08-26T22:44:37.468Z,27.57
2022-08-26T22:47:39.734Z,27.86
2022-08-26T22:50:42.247Z,27.98
2022-08-26T22:53:45.164Z,27.77
2022-08-26T22:56:47.060Z,27.68
2022-08-26T22:59:48.888Z,26.70
2022-08-26T23:02:50.855Z,26.82
2022-08-26T23:05:52.765Z,26.63
2022-08-26T23:08:55.403Z,27.50
2022-08-26T23:11:57.263Z,26.95
2022-08-26T23:14:59.303Z,27.30
2022-08-26T23:18:01.141Z,26.85
2022-08-26T23:21:02.994Z,27.66
2022-08-26T23:24:05.336Z,27.43
2022-08-26T23:27:07.200Z,27.58
2022-08-26T23:30:10.335Z,27.48
2022-08-26T23:33:12.266Z,27.16
2022-08-26T23:36:17.575Z,27.28
2022-08-26T23:39:20.075Z,26.44
2022-08-26T23:42:22.873Z,25.81
2022-08-26T23:45:25.056Z,26.61
2022-08-26T23:48:26.974Z,26.55
2022-08-26T23:51:47.297Z,26.71
2022-08-26T23:54:50.274Z,27.16
2022-08-26T23:57:52.145Z,26.31
